Time;durP1;ratioP1;P1;durP2;ratioP2;P2;SDS_P1;SDS_P2;PMS_P1;PMS_P2;Temp;Humidity;BMP_temperature;BMP_pressure;BME280_temperature;BME280_humidity;BME280_pressure;Samples;Min_cycle;Max_cycle;Signal;HPM_P1;HPM_P2
2021/08/04 00:00:24;;;;;;;17.97;14.70;;;;;;;26.19;100.00;101230.34;5070278;28;20186;-79
2021/08/04 00:02:50;;;;;;;20.47;15.70;;;;;;;26.15;100.00;101232.59;5070520;28;20406;-80
2021/08/04 00:05:15;;;;;;;19.17;13.10;;;;;;;26.11;100.00;101242.06;5070284;28;20608;-80
2021/08/04 00:07:41;;;;;;;23.40;14.03;;;;;;;26.14;100.00;101240.84;5070166;28;20175;-77
2021/08/04 00:10:07;;;;;;;22.97;15.03;;;;;;;26.14;100.00;101247.06;5070451;28;20175;-80
2021/08/04 00:12:32;;;;;;;17.47;13.53;;;;;;;26.12;100.00;101242.91;5070181;28;20238;-79
2021/08/04 00:14:58;;;;;;;18.50;14.60;;;;;;;26.11;100.00;101252.03;5052037;28;20571;-80
2021/08/04 00:17:23;;;;;;;25.00;13.70;;;;;;;26.07;100.00;101240.81;5070388;28;20190;-80
2021/08/04 00:19:49;;;;;;;17.30;14.43;;;;;;;26.02;100.00;101247.78;5070106;28;20175;-79
2021/08/04 00:22:15;;;;;;;22.40;15.70;;;;;;;26.02;100.00;101245.94;5069995;28;20263;-80
2021/08/04 00:24:40;;;;;;;19.10;15.17;;;;;;;25.94;100.00;101240.66;5070103;28;20586;-79
2021/08/04 00:27:06;;;;;;;20.73;14.60;;;;;;;25.92;100.00;101248.06;5070065;28;20179;-79
2021/08/04 00:29:31;;;;;;;19.93;14.37;;;;;;;25.98;100.00;101241.94;5070148;28;20172;-79
2021/08/04 00:31:57;;;;;;;17.30;12.73;;;;;;;25.86;100.00;101238.09;5070242;28;20528;-79
2021/08/04 00:34:22;;;;;;;16.80;14.10;;;;;;;25.82;100.00;101247.56;5070109;28;20226;-79
2021/08/04 00:36:48;;;;;;;18.40;14.67;;;;;;;25.81;100.00;101237.81;5069825;28;20173;-79
2021/08/04 00:39:13;;;;;;;14.73;12.67;;;;;;;25.78;100.00;101241.72;5069931;28;20168;-78
2021/08/04 00:41:41;;;;;;;21.77;15.43;;;;;;;25.68;100.00;101235.78;5069794;28;20204;-79
2021/08/04 00:44:07;;;;;;;17.33;13.10;;;;;;;25.64;100.00;101240.72;5070026;28;20221;-79
2021/08/04 00:46:39;;;;;;;19.70;14.70;;;;;;;25.63;100.00;101246.28;5069893;28;20501;-78
2021/08/04 00:49:04;;;;;;;18.77;14.40;;;;;;;25.65;100.00;101246.94;5070007;28;20921;-79
2021/08/04 00:51:30;;;;;;;21.53;13.53;;;;;;;25.65;100.00;101239.69;5051975;28;20422;-79
2021/08/04 00:53:55;;;;;;;17.20;13.70;;;;;;;25.67;100.00;101250.25;5069757;28;20211;-78
2021/08/04 00:56:21;;;;;;;18.20;14.73;;;;;;;25.76;100.00;101245.63;5069840;28;20165;-79
2021/08/04 00:58:47;;;;;;;22.60;13.67;;;;;;;25.65;100.00;101241.53;5073611;28;20293;-79
2021/08/04 01:01:26;;;;;;;19.07;14.33;;;;;;;25.55;100.00;101243.72;5073291;28;20167;-79
2021/08/04 01:04:19;;;;;;;17.83;15.23;;;;;;;25.47;100.00;101239.25;5073478;28;20407;-79
2021/08/04 01:07:38;;;;;;;22.57;15.40;;;;;;;25.38;100.00;101245.75;5065135;28;20467;-79
2021/08/04 01:10:22;;;;;;;15.20;13.13;;;;;;;25.38;100.00;101245.75;4995131;28;20479;-79
2021/08/04 01:13:13;;;;;;;17.80;13.73;;;;;;;25.38;100.00;101234.97;5068214;28;20797;-79
2021/08/04 01:15:50;;;;;;;24.50;14.40;;;;;;;25.34;100.00;101247.16;5071863;28;20414;-79
2021/08/04 01:18:25;;;;;;;18.83;15.80;;;;;;;25.30;100.00;101240.47;5073280;28;20403;-78
2021/08/04 01:20:51;;;;;;;20.20;13.40;;;;;;;25.23;100.00;101242.22;5073388;28;20908;-79
2021/08/04 01:23:25;;;;;;;17.17;13.60;;;;;;;25.29;100.00;101233.41;5072983;28;20407;-79
2021/08/04 01:26:11;;;;;;;17.07;14.90;;;;;;;25.30;100.00;101237.78;5072903;28;20402;-79
2021/08/04 01:28:42;;;;;;;18.37;14.10;;;;;;;25.32;100.00;101235.75;5072831;28;20395;-79
2021/08/04 01:31:12;;;;;;;18.73;14.37;;;;;;;25.28;100.00;101237.97;5072659;28;20497;-78
2021/08/04 01:33:42;;;;;;;17.97;13.57;;;;;;;25.26;100.00;101236.50;5072417;28;21005;-79
2021/08/04 01:36:12;;;;;;;17.40;13.50;;;;;;;25.20;100.00;101239.94;5072767;28;20619;-78
2021/08/04 01:38:39;;;;;;;15.87;14.17;;;;;;;25.17;100.00;101239.28;5072958;28;20824;-79
2021/08/04 01:41:07;;;;;;;16.00;13.30;;;;;;;25.16;100.00;101243.00;5072542;28;20742;-79
2021/08/04 01:43:34;;;;;;;26.60;15.07;;;;;;;25.22;100.00;101249.47;5072534;28;20398;-78
2021/08/04 01:46:00;;;;;;;16.47;14.10;;;;;;;25.11;100.00;101242.72;5072563;28;20410;-79
2021/08/04 01:48:27;;;;;;;23.57;15.07;;;;;;;25.13;100.00;101247.91;5072465;28;20410;-78
2021/08/04 01:50:56;;;;;;;25.23;15.70;;;;;;;25.12;100.00;101241.69;5072438;28;20164;-78
2021/08/04 01:53:24;;;;;;;19.30;14.63;;;;;;;25.18;100.00;101243.63;5072366;28;20948;-79
2021/08/04 01:55:50;;;;;;;18.83;14.77;;;;;;;25.14;100.00;101236.13;5072251;28;20905;-79
2021/08/04 01:58:16;;;;;;;24.43;15.57;;;;;;;25.10;100.00;101241.03;5072408;28;20460;-78
2021/08/04 02:00:41;;;;;;;18.23;14.53;;;;;;;25.12;100.00;101243.53;5072227;28;20478;-78
2021/08/04 02:03:07;;;;;;;19.53;15.20;;;;;;;25.11;100.00;101249.94;5054129;28;20177;-79
2021/08/04 02:05:32;;;;;;;20.20;13.70;;;;;;;25.10;100.00;101254.50;5072176;28;20618;-79
2021/08/04 02:08:28;;;;;;;21.77;16.17;;;;;;;25.09;100.00;101252.81;5072009;28;20160;-79
2021/08/04 02:10:57;;;;;;;18.87;15.23;;;;;;;25.23;100.00;101258.38;5072143;28;20218;-78
2021/08/04 02:13:38;;;;;;;20.83;15.80;;;;;;;25.16;100.00;101261.81;5072293;28;20458;-78
2021/08/04 02:16:18;;;;;;;19.87;15.03;;;;;;;25.19;100.00;101260.63;5071881;28;20405;-79
2021/08/04 02:18:49;;;;;;;21.20;15.37;;;;;;;25.23;100.00;101258.38;5072237;28;20856;-78
2021/08/04 02:21:16;;;;;;;23.47;16.27;;;;;;;25.15;100.00;101259.28;5071916;28;20773;-77
2021/08/04 02:23:44;;;;;;;20.20;16.70;;;;;;;25.11;100.00;101252.63;5071953;28;20456;-78
2021/08/04 02:26:20;;;;;;;18.60;14.73;;;;;;;25.09;100.00;101257.34;5071655;28;20399;-78
2021/08/04 02:28:51;;;;;;;20.50;15.83;;;;;;;25.01;100.00;101258.22;5071786;28;20414;-78
2021/08/04 02:31:18;;;;;;;17.60;14.90;;;;;;;25.04;100.00;101262.47;5071597;28;20403;-78
2021/08/04 02:33:44;;;;;;;22.87;15.60;;;;;;;24.96;100.00;101268.72;5071216;28;20462;-78
2021/08/04 02:36:11;;;;;;;21.07;16.20;;;;;;;24.94;100.00;101268.09;5071626;28;20395;-78
2021/08/04 02:38:37;;;;;;;29.33;16.67;;;;;;;24.96;100.00;101274.09;5071448;28;20504;-78
2021/08/04 02:41:03;;;;;;;22.77;16.80;;;;;;;25.02;100.00;101275.22;5071257;28;20428;-79
2021/08/04 02:43:29;;;;;;;28.33;16.03;;;;;;;24.98;100.00;101281.97;5071554;28;20170;-78
2021/08/04 02:45:58;;;;;;;19.00;15.37;;;;;;;24.95;100.00;101279.69;5053543;28;20414;-78
2021/08/04 02:48:25;;;;;;;21.97;16.80;;;;;;;25.04;100.00;101278.59;5071323;28;20457;-78
2021/08/04 02:51:04;;;;;;;20.77;16.10;;;;;;;25.09;100.00;101276.16;5071518;28;20402;-78
2021/08/04 02:53:30;;;;;;;19.03;16.10;;;;;;;25.01;100.00;101273.53;5071009;28;20541;-78
2021/08/04 02:55:55;;;;;;;21.20;14.83;;;;;;;25.04;100.00;101284.81;5071062;28;20418;-79
2021/08/04 02:58:21;;;;;;;19.93;15.17;;;;;;;24.99;100.00;101286.34;5071074;28;20462;-78
2021/08/04 03:00:48;;;;;;;23.50;15.70;;;;;;;25.02;100.00;101283.31;5071224;28;20160;-79
2021/08/04 03:03:14;;;;;;;24.37;16.00;;;;;;;25.03;100.00;101282.28;5071031;28;20493;-79
2021/08/04 03:05:39;;;;;;;21.00;15.60;;;;;;;25.10;100.00;101286.78;5071039;28;20406;-79
2021/08/04 03:08:05;;;;;;;22.47;17.00;;;;;;;25.10;100.00;101286.78;5070937;28;20168;-78
2021/08/04 03:10:30;;;;;;;20.70;16.63;;;;;;;25.12;100.00;101290.09;5070773;28;20253;-78
2021/08/04 03:12:56;;;;;;;21.40;16.03;;;;;;;25.16;100.00;101295.94;5070966;28;20164;-79
2021/08/04 03:15:22;;;;;;;19.57;15.83;;;;;;;25.16;100.00;101294.09;5070906;28;20195;-78
2021/08/04 03:17:47;;;;;;;17.97;15.17;;;;;;;25.15;100.00;101289.72;5070904;28;20187;-79
2021/08/04 03:20:13;;;;;;;19.73;17.10;;;;;;;25.05;100.00;101289.16;5070309;28;20599;-78
2021/08/04 03:22:46;;;;;;;22.63;17.23;;;;;;;25.04;100.00;101294.72;5070693;28;20175;-79
2021/08/04 03:25:13;;;;;;;20.33;16.00;;;;;;;25.06;100.00;101290.84;5071080;28;20791;-79
2021/08/04 03:27:39;;;;;;;23.50;17.63;;;;;;;25.08;100.00;101294.16;5071015;28;20762;-79
2021/08/04 03:30:05;;;;;;;24.87;17.10;;;;;;;25.08;100.00;101283.41;5070843;28;20917;-79
2021/08/04 03:32:30;;;;;;;24.23;18.43;;;;;;;25.08;100.00;101296.03;5070524;28;20640;-79
2021/08/04 03:34:56;;;;;;;25.43;16.93;;;;;;;25.03;100.00;101293.91;5070537;28;20967;-80
2021/08/04 03:37:21;;;;;;;21.40;17.13;;;;;;;25.10;100.00;101297.53;5070814;28;20171;-79
2021/08/04 03:39:47;;;;;;;25.80;17.63;;;;;;;25.13;100.00;101299.84;5070537;28;20195;-80
2021/08/04 03:42:16;;;;;;;23.80;18.00;;;;;;;25.16;100.00;101296.78;5070507;28;20615;-77
2021/08/04 03:44:41;;;;;;;20.27;16.80;;;;;;;25.29;100.00;101296.13;5070434;28;20179;-79
2021/08/04 03:47:07;;;;;;;24.67;18.40;;;;;;;25.34;100.00;101296.41;5070377;28;20398;-79
2021/08/04 03:49:33;;;;;;;23.53;15.50;;;;;;;25.35;100.00;101294.56;5070202;28;20172;-77
2021/08/04 03:51:58;;;;;;;21.80;17.70;;;;;;;25.32;100.00;101295.78;5070489;28;20296;-79
2021/08/04 03:54:24;;;;;;;24.30;18.40;;;;;;;25.38;100.00;101296.88;5052520;28;20200;-78
2021/08/04 03:56:49;;;;;;;33.43;17.10;;;;;;;25.38;100.00;101296.88;5070166;28;20196;-78
2021/08/04 03:59:15;;;;;;;23.17;17.10;;;;;;;25.42;100.00;101300.88;5070486;28;20173;-78
2021/08/04 04:01:40;;;;;;;31.23;18.53;;;;;;;25.43;100.00;101300.69;5070393;28;20617;-79
2021/08/04 04:04:05;;;;;;;25.03;17.20;;;;;;;25.39;100.00;101301.22;5070326;28;20172;-78
2021/08/04 04:06:31;;;;;;;25.57;18.90;;;;;;;25.45;100.00;101297.81;5070381;28;20169;-78
2021/08/04 04:08:56;;;;;;;26.77;17.43;;;;;;;25.53;100.00;101299.56;5070180;28;20168;-79
2021/08/04 04:11:22;;;;;;;26.53;17.10;;;;;;;25.50;100.00;101294.56;5070484;28;20167;-79
2021/08/04 04:13:47;;;;;;;22.07;17.50;;;;;;;25.48;100.00;101294.75;5070019;28;20198;-79
2021/08/04 04:16:13;;;;;;;27.13;18.73;;;;;;;25.48;100.00;101300.13;5070266;28;20176;-79
2021/08/04 04:18:38;;;;;;;30.20;19.73;;;;;;;25.45;100.00;101300.50;5069920;28;20180;-79
2021/08/04 04:21:05;;;;;;;47.43;20.10;;;;;;;25.48;100.00;101300.13;5052199;28;20176;-77
2021/08/04 04:23:30;;;;;;;24.87;18.50;;;;;;;25.50;100.00;101302.63;5070033;28;20517;-78
2021/08/04 04:25:55;;;;;;;23.60;17.83;;;;;;;25.51;100.00;101304.31;5069856;28;20460;-80
2021/08/04 04:28:21;;;;;;;25.33;16.90;;;;;;;25.61;100.00;101307.53;5069984;28;20623;-80
2021/08/04 04:30:46;;;;;;;24.10;17.43;;;;;;;25.71;100.00;101314.34;5070030;28;20176;-79
2021/08/04 04:33:12;;;;;;;27.77;17.10;;;;;;;25.69;100.00;101300.22;5072698;28;20697;-79
2021/08/04 04:35:37;;;;;;;24.90;17.93;;;;;;;25.81;100.00;101303.28;5073604;28;20179;-79
2021/08/04 04:38:04;;;;;;;24.67;17.67;;;;;;;25.91;100.00;101302.97;5073655;28;20196;-79
2021/08/04 04:40:30;;;;;;;27.50;16.90;;;;;;;25.97;100.00;101300.34;5073707;28;20168;-80
2021/08/04 04:42:55;;;;;;;27.37;16.70;;;;;;;26.02;100.00;101301.66;5055732;28;20441;-78
2021/08/04 04:45:21;;;;;;;22.87;17.03;;;;;;;26.07;100.00;101310.84;5073514;28;20253;-79
2021/08/04 04:47:46;;;;;;;22.23;16.67;;;;;;;26.18;100.00;101309.50;5073734;28;20164;-79
2021/08/04 04:50:12;;;;;;;21.70;16.20;;;;;;;26.28;100.00;101307.31;5073309;28;20164;-78
2021/08/04 04:52:41;;;;;;;28.37;16.77;;;;;;;26.45;100.00;101298.00;5073154;28;20254;-78
2021/08/04 04:55:08;;;;;;;28.43;17.30;;;;;;;26.49;100.00;101307.38;5073498;28;20279;-79
2021/08/04 04:57:34;;;;;;;31.20;17.73;;;;;;;26.54;100.00;101307.63;5073006;28;20488;-77
2021/08/04 04:59:59;;;;;;;31.97;18.13;;;;;;;26.56;100.00;101304.72;5072912;28;20411;-79
2021/08/04 05:02:25;;;;;;;23.73;16.43;;;;;;;26.69;100.00;101318.34;5073176;28;20164;-79
2021/08/04 05:04:50;;;;;;;22.00;17.63;;;;;;;26.87;100.00;101317.84;5073421;28;20176;-79
2021/08/04 05:07:16;;;;;;;26.97;16.00;;;;;;;27.01;100.00;101319.63;5072961;28;20170;-79
2021/08/04 05:09:41;;;;;;;24.43;16.50;;;;;;;27.14;100.00;101318.09;5073000;28;20171;-79
2021/08/04 05:12:07;;;;;;;22.13;17.80;;;;;;;27.32;100.00;101316.53;5054924;28;20167;-80
2021/08/04 05:14:32;;;;;;;21.77;16.27;;;;;;;27.34;100.00;101317.19;5072783;28;20275;-79
2021/08/04 05:16:58;;;;;;;21.30;16.30;;;;;;;27.34;100.00;101319.03;5072587;28;20202;-79
2021/08/04 05:19:23;;;;;;;20.37;17.40;;;;;;;27.31;100.00;101317.59;5073045;28;20156;-79
2021/08/04 05:21:49;;;;;;;71.47;63.97;;;;;;;27.35;100.00;101321.53;5072828;28;20224;-79
2021/08/04 05:24:14;;;;;;;22.97;17.57;;;;;;;27.40;100.00;101325.53;5072426;28;20213;-78
2021/08/04 05:26:40;;;;;;;26.60;17.57;;;;;;;27.47;100.00;101323.69;5072904;28;20303;-78
2021/08/04 05:29:05;;;;;;;17.57;13.80;;;;;;;27.53;100.00;101323.75;5072869;28;20536;-80
2021/08/04 05:31:31;;;;;;;23.57;15.10;;;;;;;27.62;100.00;101338.72;5072181;28;20233;-79
2021/08/04 05:33:56;;;;;;;19.63;14.40;;;;;;;27.74;100.00;101330.94;5071897;28;20220;-80
2021/08/04 05:36:22;;;;;;;23.43;14.60;;;;;;;27.78;100.00;101334.06;5072532;28;20166;-78
2021/08/04 05:38:47;;;;;;;16.23;14.50;;;;;;;27.91;100.00;101339.53;5071965;28;20179;-78
2021/08/04 05:41:12;;;;;;;22.63;15.50;;;;;;;28.01;100.00;101342.66;5072118;28;20203;-79
2021/08/04 05:43:38;;;;;;;18.43;14.40;;;;;;;28.02;100.00;101340.81;5072088;28;20160;-80
2021/08/04 05:46:03;;;;;;;17.00;12.30;;;;;;;27.95;100.00;101337.25;5072454;28;20186;-78
2021/08/04 05:48:29;;;;;;;17.93;14.10;;;;;;;27.99;100.00;101339.34;5072183;28;20531;-79
2021/08/04 05:50:54;;;;;;;16.73;13.30;;;;;;;27.77;100.00;101337.81;5072164;28;20171;-78
2021/08/04 05:53:20;;;;;;;15.93;14.27;;;;;;;27.97;100.00;101338.72;5071864;28;20162;-79
2021/08/04 05:55:45;;;;;;;16.23;13.97;;;;;;;28.14;100.00;101339.19;5072549;28;20168;-79
2021/08/04 05:58:11;;;;;;;20.40;14.93;;;;;;;28.22;100.00;101349.81;5071935;28;20191;-80
2021/08/04 06:00:36;;;;;;;22.47;13.87;;;;;;;28.12;100.00;101346.69;5071933;28;20202;-78
2021/08/04 06:03:02;;;;;;;20.63;12.93;;;;;;;28.13;100.00;101342.94;5072959;28;20308;-79
2021/08/04 06:05:27;;;;;;;20.80;13.73;;;;;;;28.13;100.00;101351.03;5071582;28;20164;-80
2021/08/04 06:07:55;;;;;;;16.63;13.03;;;;;;;28.26;100.00;101342.94;5071839;28;20165;-80
2021/08/04 06:10:21;;;;;;;23.53;12.43;;;;;;;28.37;100.00;101346.97;5072135;28;20156;-80
2021/08/04 06:12:46;;;;;;;21.33;12.87;;;;;;;28.46;100.00;101348.44;5071870;28;20399;-77
2021/08/04 06:15:12;;;;;;;18.30;13.83;;;;;;;28.59;100.00;101355.75;5053390;28;20242;-80
2021/08/04 06:17:37;;;;;;;17.70;12.17;;;;;;;28.69;100.00;101348.06;5071368;28;20168;-77
2021/08/04 06:20:04;;;;;;;18.50;12.30;;;;;;;28.55;100.00;101355.31;5071679;28;20243;-80
2021/08/04 06:22:30;;;;;;;14.40;12.47;;;;;;;28.60;100.00;101350.13;5072017;28;20161;-78
2021/08/04 06:24:55;;;;;;;17.23;12.53;;;;;;;28.82;100.00;101350.78;5073373;28;20822;-79
2021/08/04 06:27:21;;;;;;;17.83;13.50;;;;;;;28.97;100.00;101347.91;5072138;28;20169;-79
2021/08/04 06:29:46;;;;;;;17.50;14.30;;;;;;;28.97;100.00;101351.44;5071217;28;20160;-78
2021/08/04 06:32:12;;;;;;;17.80;13.93;;;;;;;29.14;100.00;101356.41;5071204;28;20285;-79
2021/08/04 06:34:37;;;;;;;17.03;12.60;;;;;;;29.32;100.00;101347.63;5070949;28;20184;-79
2021/08/04 06:37:03;;;;;;;19.53;14.00;;;;;;;29.28;100.00;101353.47;5071270;28;20573;-79
2021/08/04 06:39:29;;;;;;;16.10;14.40;;;;;;;29.38;100.00;101355.75;5072075;28;20234;-80
2021/08/04 06:41:54;;;;;;;20.00;13.57;;;;;;;29.45;100.00;101356.56;5071202;28;20168;-80
2021/08/04 06:44:20;;;;;;;20.83;15.70;;;;;;;29.56;100.00;101352.44;5070960;28;20251;-78
2021/08/04 06:46:45;;;;;;;18.00;14.43;;;;;;;29.78;100.00;101344.84;5070685;28;20165;-80
2021/08/04 06:49:11;;;;;;;19.87;14.20;;;;;;;29.89;100.00;101351.47;5070880;28;20531;-79
2021/08/04 06:51:36;;;;;;;21.20;14.37;;;;;;;30.08;100.00;101354.13;5070532;28;20160;-80
2021/08/04 06:54:02;;;;;;;14.20;12.40;;;;;;;30.28;100.00;101355.88;5070770;28;20200;-80
2021/08/04 06:56:28;;;;;;;20.67;13.60;;;;;;;30.38;100.00;101354.38;5069973;28;20216;-78
2021/08/04 06:58:53;;;;;;;17.27;13.70;;;;;;;30.37;100.00;101354.56;5070363;28;20499;-80
2021/08/04 07:01:19;;;;;;;15.10;12.40;;;;;;;30.29;100.00;101357.56;5070342;28;20202;-81
2021/08/04 07:03:44;;;;;;;18.33;12.70;;;;;;;30.19;100.00;101354.47;5069867;28;20221;-80
2021/08/04 07:06:10;;;;;;;17.63;12.90;;;;;;;30.27;100.00;101352.34;5070142;28;20194;-79
2021/08/04 07:08:37;;;;;;;16.30;12.20;;;;;;;30.31;100.00;101355.47;5070823;28;20229;-80
2021/08/04 07:11:03;;;;;;;16.40;14.67;;;;;;;30.06;100.00;101353.47;5071076;28;20420;-80
2021/08/04 07:13:28;;;;;;;24.37;12.63;;;;;;;29.90;100.00;101359.38;5070550;28;20442;-80
2021/08/04 07:15:54;;;;;;;14.93;12.20;;;;;;;29.77;100.00;101360.25;5070296;28;21306;-78
2021/08/04 07:18:20;;;;;;;28.43;14.73;;;;;;;29.89;100.00;101357.72;5070434;28;20214;-78
2021/08/04 07:20:45;;;;;;;22.60;12.60;;;;;;;29.88;100.00;101355.22;5071159;28;20176;-79
2021/08/04 07:23:11;;;;;;;17.70;13.20;;;;;;;29.82;100.00;101356.91;5070637;28;20480;-79
2021/08/04 07:25:37;;;;;;;15.20;12.93;;;;;;;29.84;100.00;101350.22;5070781;28;20187;-80
2021/08/04 07:28:02;;;;;;;17.13;12.93;;;;;;;29.79;100.00;101357.34;5070422;28;20179;-79
2021/08/04 07:30:28;;;;;;;13.60;11.67;;;;;;;29.79;100.00;101346.50;5071299;28;20171;-79
2021/08/04 07:32:53;;;;;;;16.17;12.10;;;;;;;29.81;100.00;101330.84;5070600;28;20707;-80
2021/08/04 07:35:19;;;;;;;16.03;12.60;;;;;;;29.75;100.00;101342.56;5070434;28;20192;-79
2021/08/04 07:37:45;;;;;;;19.90;12.83;;;;;;;29.79;100.00;101330.25;5070403;28;20171;-79
2021/08/04 07:40:12;;;;;;;14.60;10.90;;;;;;;29.73;100.00;101337.34;5070861;28;20164;-79
2021/08/04 07:42:37;;;;;;;18.10;13.10;;;;;;;29.82;100.00;101343.38;5070068;28;20393;-80
2021/08/04 07:45:04;;;;;;;18.70;13.90;;;;;;;29.69;100.00;101351.53;5070395;28;20389;-80
2021/08/04 07:47:30;;;;;;;17.87;11.90;;;;;;;29.79;100.00;101354.63;5069999;28;20247;-80
2021/08/04 07:49:55;;;;;;;17.90;11.40;;;;;;;29.79;100.00;101357.34;5070119;28;20489;-80
2021/08/04 07:52:21;;;;;;;20.27;12.47;;;;;;;29.78;100.00;101348.41;5070304;28;20655;-80
2021/08/04 07:54:47;;;;;;;15.20;11.90;;;;;;;29.87;100.00;101350.84;5071053;28;20215;-81
2021/08/04 07:57:13;;;;;;;20.30;11.50;;;;;;;29.91;100.00;101355.63;5070131;28;20199;-79
2021/08/04 07:59:38;;;;;;;16.83;11.33;;;;;;;29.99;100.00;101351.84;5070039;28;20161;-79
2021/08/04 08:02:04;;;;;;;15.90;11.37;;;;;;;30.07;100.00;101360.53;5069747;28;20188;-79
2021/08/04 08:04:33;;;;;;;23.77;12.40;;;;;;;30.11;100.00;101356.41;5069848;28;20597;-79
2021/08/04 08:07:00;;;;;;;18.77;11.53;;;;;;;30.21;100.00;101355.91;5072857;28;20226;-79
2021/08/04 08:09:26;;;;;;;16.47;10.80;;;;;;;30.20;100.00;101348.84;5074826;28;20464;-80
2021/08/04 08:11:58;;;;;;;14.73;10.93;;;;;;;30.28;100.00;101354.00;5074331;28;20406;-79
2021/08/04 08:14:28;;;;;;;15.73;11.50;;;;;;;30.21;100.00;101347.78;5055865;28;20249;-79
2021/08/04 08:16:54;;;;;;;17.03;10.80;;;;;;;30.15;100.00;101351.34;5073636;28;20383;-79
2021/08/04 08:19:20;;;;;;;13.53;9.80;;;;;;;30.20;100.00;101339.88;5074020;28;20395;-79
2021/08/04 08:21:46;;;;;;;14.67;10.63;;;;;;;30.25;100.00;101345.50;5073602;28;20468;-79
2021/08/04 08:24:12;;;;;;;13.27;10.70;;;;;;;30.28;100.00;101339.63;5073063;28;20168;-79
2021/08/04 08:26:38;;;;;;;17.17;10.60;;;;;;;30.24;100.00;101344.66;5073305;28;20164;-79
2021/08/04 08:29:05;;;;;;;24.53;11.90;;;;;;;30.24;100.00;101339.22;5072955;28;20463;-77
2021/08/04 08:31:32;;;;;;;15.77;10.20;;;;;;;30.19;100.00;101340.94;5072841;28;20548;-80
2021/08/04 08:34:00;;;;;;;13.20;10.30;;;;;;;30.17;100.00;101345.75;5072925;28;20461;-79
2021/08/04 08:36:30;;;;;;;13.43;10.57;;;;;;;30.21;100.00;101338.81;5073464;28;20399;-78
2021/08/04 08:38:58;;;;;;;13.10;9.50;;;;;;;30.27;100.00;101327.09;5073237;28;20463;-80
2021/08/04 08:41:24;;;;;;;16.60;9.90;;;;;;;30.31;100.00;101333.78;5073538;28;20406;-80
2021/08/04 08:43:49;;;;;;;16.60;10.30;;;;;;;30.32;100.00;101335.44;5073267;28;20482;-79
2021/08/04 08:46:15;;;;;;;16.30;9.50;;;;;;;30.42;100.00;101340.38;5073174;28;20486;-79
2021/08/04 08:48:46;;;;;;;13.03;9.90;;;;;;;30.51;100.00;101339.03;5073299;28;20577;-80
2021/08/04 08:51:16;;;;;;;15.13;10.23;;;;;;;30.65;100.00;101333.31;5072974;28;20172;-78
2021/08/04 08:53:41;;;;;;;13.70;9.50;;;;;;;30.73;100.00;101334.13;5072539;28;20534;-79
2021/08/04 08:56:07;;;;;;;15.17;9.93;;;;;;;30.63;100.00;101327.28;5072614;28;20554;-79
2021/08/04 08:58:32;;;;;;;16.57;9.30;;;;;;;30.71;100.00;101330.81;5072456;28;20152;-80
2021/08/04 09:00:58;;;;;;;13.93;9.30;;;;;;;30.73;100.00;101329.53;5054090;28;20691;-78
2021/08/04 09:03:23;;;;;;;14.27;10.10;;;;;;;30.93;100.00;101326.66;5073131;28;20206;-79
2021/08/04 09:05:56;;;;;;;14.47;9.20;;;;;;;31.26;100.00;101320.09;5054839;28;20275;-78
2021/08/04 09:08:41;;;;;;;13.53;9.50;;;;;;;31.44;100.00;101328.25;5072637;28;20168;-79
2021/08/04 09:11:13;;;;;;;14.80;10.10;;;;;;;31.54;100.00;101323.13;5072675;28;20414;-80
2021/08/04 09:13:39;;;;;;;11.77;9.77;;;;;;;31.43;100.00;101323.84;5072687;28;20442;-79
2021/08/04 09:16:10;;;;;;;24.90;19.63;;;;;;;31.55;100.00;101327.50;5054426;28;20422;-78
2021/08/04 09:18:44;;;;;;;18.13;11.70;;;;;;;31.60;100.00;101329.53;5071268;28;20398;-80
2021/08/04 09:21:11;;;;;;;10.70;9.07;;;;;;;31.72;100.00;101325.81;5072559;28;21160;-78
2021/08/04 09:23:51;;;;;;;12.93;10.27;;;;;;;31.40;100.00;101321.59;5054037;28;20419;-80
2021/08/04 09:26:19;;;;;;;19.90;9.10;;;;;;;31.57;100.00;101324.53;5072088;28;20409;-80
2021/08/04 09:29:04;;;;;;;11.70;9.00;;;;;;;31.57;100.00;101319.94;5072513;28;20498;-80
2021/08/04 09:31:49;;;;;;;13.10;9.37;;;;;;;31.53;100.00;101329.63;5071683;28;20973;-80
2021/08/04 09:34:40;;;;;;;12.20;9.17;;;;;;;31.58;100.00;101315.31;5072289;28;20470;-78
2021/08/04 09:37:11;;;;;;;14.33;9.43;;;;;;;31.59;100.00;101319.69;5072000;28;20579;-79
2021/08/04 09:39:57;;;;;;;14.20;11.10;;;;;;;31.92;100.00;101316.63;5053103;28;20430;-79
2021/08/04 09:42:43;;;;;;;12.23;8.83;;;;;;;32.00;100.00;101316.28;5071320;28;20425;-80
2021/08/04 09:45:10;;;;;;;14.97;10.23;;;;;;;31.73;100.00;101315.75;5071188;28;20403;-80
2021/08/04 09:47:36;;;;;;;13.10;9.20;;;;;;;31.71;100.00;101316.00;5071686;28;20810;-79
2021/08/04 09:50:07;;;;;;;18.00;14.73;;;;;;;31.74;100.00;101312.84;5071813;28;20891;-79
2021/08/04 09:52:35;;;;;;;12.90;9.13;;;;;;;31.74;100.00;101301.97;5071331;28;20176;-80
2021/08/04 09:55:15;;;;;;;13.20;10.30;;;;;;;31.70;100.00;101298.03;5071909;28;20470;-80
2021/08/04 09:57:47;;;;;;;17.27;9.17;;;;;;;31.70;100.00;101298.03;5070987;28;20422;-80
2021/08/04 10:00:16;;;;;;;12.63;9.10;;;;;;;31.76;100.00;101297.13;5071153;28;20399;-80
2021/08/04 10:02:44;;;;;;;10.27;7.70;;;;;;;31.71;100.00;101293.44;5071017;28;20402;-80
2021/08/04 10:05:14;;;;;;;12.50;8.93;;;;;;;31.65;100.00;101299.78;5071047;28;20497;-80
2021/08/04 10:08:02;;;;;;;13.03;8.50;;;;;;;31.72;100.00;101300.53;5071335;28;20583;-81
2021/08/04 10:10:30;;;;;;;10.10;8.10;;;;;;;31.93;100.00;101294.63;5071086;28;20904;-79
2021/08/04 10:12:57;;;;;;;11.07;8.50;;;;;;;31.87;100.00;101292.00;5071344;28;20407;-80
2021/08/04 10:15:23;;;;;;;17.17;9.40;;;;;;;31.92;100.00;101286.72;5071003;28;20516;-78
2021/08/04 10:17:50;;;;;;;9.90;8.10;;;;;;;31.74;100.00;101282.09;5071013;28;20413;-79
2021/08/04 10:20:16;;;;;;;17.10;8.70;;;;;;;31.71;100.00;101280.66;5070499;28;20546;-80
2021/08/04 10:22:42;;;;;;;11.23;7.77;;;;;;;31.80;100.00;101277.66;5070777;28;20489;-81
2021/08/04 10:25:08;;;;;;;19.03;9.93;;;;;;;31.69;100.00;101285.50;5070776;28;20175;-80
2021/08/04 10:27:34;;;;;;;23.27;9.37;;;;;;;31.73;100.00;101281.25;5071187;28;20199;-79
2021/08/04 10:30:00;;;;;;;11.30;7.53;;;;;;;32.03;100.00;101283.19;5070743;28;20410;-80
2021/08/04 10:32:28;;;;;;;9.43;8.43;;;;;;;32.42;100.00;101273.66;5070761;28;20474;-79
2021/08/04 10:34:56;;;;;;;11.43;8.10;;;;;;;32.73;100.00;101266.22;5070538;28;20481;-78
2021/08/04 10:37:25;;;;;;;12.13;8.43;;;;;;;33.07;100.00;101265.38;5070649;28;20413;-78
2021/08/04 10:39:51;;;;;;;10.93;7.90;;;;;;;33.07;100.00;101265.38;5070698;28;20426;-80
2021/08/04 10:42:18;;;;;;;11.97;8.90;;;;;;;32.99;100.00;101262.19;5070381;28;20401;-80
2021/08/04 10:44:46;;;;;;;17.30;10.10;;;;;;;32.84;100.00;101251.75;5070500;28;20408;-80
2021/08/04 10:47:26;;;;;;;10.10;7.90;;;;;;;32.51;100.00;101255.91;5070248;28;20402;-81
2021/08/04 10:50:18;;;;;;;12.63;8.33;;;;;;;32.28;100.00;101253.13;5070556;28;20406;-80
2021/08/04 10:53:09;;;;;;;14.10;8.77;;;;;;;32.34;100.00;101262.25;5066364;28;20414;-80
2021/08/04 10:55:55;;;;;;;14.77;8.50;;;;;;;32.32;100.00;101256.22;5066689;28;20495;-79
2021/08/04 10:58:22;;;;;;;8.80;7.40;;;;;;;32.35;100.00;101253.03;5070268;28;20427;-81
2021/08/04 11:00:48;;;;;;;14.13;7.80;;;;;;;32.42;100.00;101251.03;5070425;28;20409;-80
2021/08/04 11:03:41;;;;;;;10.00;9.00;;;;;;;32.24;100.00;101249.19;5070265;28;20399;-79
2021/08/04 11:06:09;;;;;;;14.43;7.60;;;;;;;32.15;100.00;101247.88;5070193;28;20399;-80